sensor_id;sensor_type;location;lat;lon;timestamp;P1;durP1;ratioP1;P2;durP2;ratioP2
29330;SDS011;16331;52.528;13.342;2023-06-22T00:00:17;14.88;;;9.73;;
29330;SDS011;16331;52.528;13.342;2023-06-22T00:02:45;14.68;;;9.75;;
29330;SDS011;16331;52.528;13.342;2023-06-22T00:05:11;15.88;;;10.15;;
29330;SDS011;16331;52.528;13.342;2023-06-22T00:07:37;17.80;;;8.75;;
29330;SDS011;16331;52.528;13.342;2023-06-22T00:10:04;18.38;;;10.20;;
29330;SDS011;16331;52.528;13.342;2023-06-22T00:12:30;13.48;;;8.88;;
29330;SDS011;16331;52.528;13.342;2023-06-22T00:14:57;12.18;;;8.52;;
29330;SDS011;16331;52.528;13.342;2023-06-22T00:17:23;13.32;;;9.02;;
29330;SDS011;16331;52.528;13.342;2023-06-22T00:19:49;14.30;;;9.82;;
29330;SDS011;16331;52.528;13.342;2023-06-22T00:22:18;14.25;;;9.10;;
29330;SDS011;16331;52.528;13.342;2023-06-22T00:24:52;14.32;;;8.15;;
29330;SDS011;16331;52.528;13.342;2023-06-22T00:27:20;15.55;;;9.00;;
29330;SDS011;16331;52.528;13.342;2023-06-22T00:29:46;11.32;;;8.43;;
29330;SDS011;16331;52.528;13.342;2023-06-22T00:32:12;14.27;;;8.60;;
29330;SDS011;16331;52.528;13.342;2023-06-22T00:34:38;11.10;;;7.93;;
29330;SDS011;16331;52.528;13.342;2023-06-22T00:37:04;11.93;;;7.97;;
29330;SDS011;16331;52.528;13.342;2023-06-22T00:39:31;10.43;;;7.63;;
29330;SDS011;16331;52.528;13.342;2023-06-22T00:41:59;12.98;;;8.77;;
29330;SDS011;16331;52.528;13.342;2023-06-22T00:44:25;12.00;;;8.27;;
29330;SDS011;16331;52.528;13.342;2023-06-22T00:46:51;11.98;;;8.57;;
29330;SDS011;16331;52.528;13.342;2023-06-22T00:49:18;13.80;;;8.05;;
29330;SDS011;16331;52.528;13.342;2023-06-22T00:51:46;15.55;;;8.05;;
29330;SDS011;16331;52.528;13.342;2023-06-22T00:54:12;14.27;;;8.70;;
29330;SDS011;16331;52.528;13.342;2023-06-22T00:56:40;14.85;;;9.20;;
29330;SDS011;16331;52.528;13.342;2023-06-22T00:59:07;13.60;;;8.68;;
29330;SDS011;16331;52.528;13.342;2023-06-22T01:01:37;13.48;;;8.60;;
29330;SDS011;16331;52.528;13.342;2023-06-22T01:04:06;12.63;;;8.50;;
29330;SDS011;16331;52.528;13.342;2023-06-22T01:06:35;15.15;;;8.55;;
29330;SDS011;16331;52.528;13.342;2023-06-22T01:09:15;13.70;;;8.15;;
29330;SDS011;16331;52.528;13.342;2023-06-22T01:11:45;12.38;;;7.70;;
29330;SDS011;16331;52.528;13.342;2023-06-22T01:14:21;14.30;;;8.20;;
29330;SDS011;16331;52.528;13.342;2023-06-22T01:16:53;13.77;;;8.63;;
29330;SDS011;16331;52.528;13.342;2023-06-22T01:19:35;14.18;;;8.07;;
29330;SDS011;16331;52.528;13.342;2023-06-22T01:22:20;13.32;;;8.18;;
29330;SDS011;16331;52.528;13.342;2023-06-22T01:27:33;17.02;;;9.38;;
29330;SDS011;16331;52.528;13.342;2023-06-22T01:30:26;11.77;;;8.05;;
29330;SDS011;16331;52.528;13.342;2023-06-22T01:32:56;14.85;;;8.70;;
29330;SDS011;16331;52.528;13.342;2023-06-22T01:35:23;12.88;;;8.10;;
29330;SDS011;16331;52.528;13.342;2023-06-22T01:37:50;13.18;;;8.45;;
29330;SDS011;16331;52.528;13.342;2023-06-22T01:40:16;13.85;;;9.20;;
29330;SDS011;16331;52.528;13.342;2023-06-22T01:42:44;19.67;;;8.73;;
29330;SDS011;16331;52.528;13.342;2023-06-22T01:45:13;14.73;;;8.60;;
29330;SDS011;16331;52.528;13.342;2023-06-22T01:47:41;14.10;;;9.63;;
29330;SDS011;16331;52.528;13.342;2023-06-22T01:50:07;13.43;;;8.93;;
29330;SDS011;16331;52.528;13.342;2023-06-22T01:52:36;14.85;;;9.43;;
29330;SDS011;16331;52.528;13.342;2023-06-22T01:55:02;14.32;;;9.05;;
29330;SDS011;16331;52.528;13.342;2023-06-22T01:57:35;19.30;;;9.23;;
29330;SDS011;16331;52.528;13.342;2023-06-22T02:02:44;16.00;;;8.90;;
29330;SDS011;16331;52.528;13.342;2023-06-22T02:05:22;14.07;;;8.75;;
29330;SDS011;16331;52.528;13.342;2023-06-22T02:08:02;14.75;;;10.18;;
29330;SDS011;16331;52.528;13.342;2023-06-22T02:10:34;20.20;;;10.60;;
29330;SDS011;16331;52.528;13.342;2023-06-22T02:13:03;21.77;;;11.60;;
29330;SDS011;16331;52.528;13.342;2023-06-22T02:15:33;15.77;;;11.15;;
29330;SDS011;16331;52.528;13.342;2023-06-22T02:18:00;17.08;;;10.40;;
29330;SDS011;16331;52.528;13.342;2023-06-22T02:20:26;18.63;;;10.70;;
29330;SDS011;16331;52.528;13.342;2023-06-22T02:22:53;18.20;;;11.32;;
29330;SDS011;16331;52.528;13.342;2023-06-22T02:25:19;20.42;;;11.55;;
29330;SDS011;16331;52.528;13.342;2023-06-22T02:27:46;21.38;;;11.73;;
29330;SDS011;16331;52.528;13.342;2023-06-22T02:30:13;17.27;;;11.18;;
29330;SDS011;16331;52.528;13.342;2023-06-22T02:32:41;18.52;;;12.07;;
29330;SDS011;16331;52.528;13.342;2023-06-22T02:35:07;20.80;;;11.18;;
29330;SDS011;16331;52.528;13.342;2023-06-22T02:37:38;19.40;;;12.32;;
29330;SDS011;16331;52.528;13.342;2023-06-22T02:40:06;19.15;;;11.77;;
29330;SDS011;16331;52.528;13.342;2023-06-22T02:42:35;20.52;;;13.73;;
29330;SDS011;16331;52.528;13.342;2023-06-22T02:45:04;19.73;;;12.32;;
29330;SDS011;16331;52.528;13.342;2023-06-22T02:47:32;19.58;;;12.15;;
29330;SDS011;16331;52.528;13.342;2023-06-22T02:50:01;19.23;;;11.55;;
29330;SDS011;16331;52.528;13.342;2023-06-22T02:52:27;21.15;;;12.63;;
29330;SDS011;16331;52.528;13.342;2023-06-22T02:54:53;19.85;;;12.55;;
29330;SDS011;16331;52.528;13.342;2023-06-22T02:57:20;22.60;;;12.50;;
29330;SDS011;16331;52.528;13.342;2023-06-22T02:59:46;19.98;;;13.43;;
29330;SDS011;16331;52.528;13.342;2023-06-22T03:02:12;21.38;;;12.95;;
29330;SDS011;16331;52.528;13.342;2023-06-22T03:04:38;22.55;;;12.93;;
29330;SDS011;16331;52.528;13.342;2023-06-22T03:07:04;24.20;;;12.85;;
29330;SDS011;16331;52.528;13.342;2023-06-22T03:09:30;22.42;;;13.45;;
29330;SDS011;16331;52.528;13.342;2023-06-22T03:11:57;20.90;;;12.25;;
29330;SDS011;16331;52.528;13.342;2023-06-22T03:14:23;20.90;;;12.80;;
29330;SDS011;16331;52.528;13.342;2023-06-22T03:16:49;20.33;;;12.60;;
29330;SDS011;16331;52.528;13.342;2023-06-22T03:19:15;20.02;;;11.80;;
29330;SDS011;16331;52.528;13.342;2023-06-22T03:21:42;18.20;;;11.50;;
29330;SDS011;16331;52.528;13.342;2023-06-22T03:24:08;16.70;;;10.85;;
29330;SDS011;16331;52.528;13.342;2023-06-22T03:26:35;18.77;;;11.48;;
29330;SDS011;16331;52.528;13.342;2023-06-22T03:29:01;21.15;;;10.98;;
29330;SDS011;16331;52.528;13.342;2023-06-22T03:31:28;20.95;;;10.93;;
29330;SDS011;16331;52.528;13.342;2023-06-22T03:33:57;17.33;;;10.48;;
29330;SDS011;16331;52.528;13.342;2023-06-22T03:36:23;14.90;;;9.75;;
29330;SDS011;16331;52.528;13.342;2023-06-22T03:38:49;16.90;;;10.20;;
29330;SDS011;16331;52.528;13.342;2023-06-22T03:41:17;13.45;;;8.90;;
29330;SDS011;16331;52.528;13.342;2023-06-22T03:43:43;16.38;;;9.68;;
29330;SDS011;16331;52.528;13.342;2023-06-22T03:46:13;18.40;;;8.25;;
29330;SDS011;16331;52.528;13.342;2023-06-22T03:48:39;14.43;;;8.23;;
29330;SDS011;16331;52.528;13.342;2023-06-22T03:51:06;14.88;;;8.40;;
29330;SDS011;16331;52.528;13.342;2023-06-22T03:53:33;15.68;;;8.10;;
29330;SDS011;16331;52.528;13.342;2023-06-22T03:55:59;13.85;;;8.70;;
29330;SDS011;16331;52.528;13.342;2023-06-22T03:58:25;13.77;;;8.55;;
29330;SDS011;16331;52.528;13.342;2023-06-22T04:00:58;15.52;;;7.72;;
29330;SDS011;16331;52.528;13.342;2023-06-22T04:03:25;10.32;;;7.00;;
29330;SDS011;16331;52.528;13.342;2023-06-22T04:05:52;11.90;;;8.18;;
29330;SDS011;16331;52.528;13.342;2023-06-22T04:08:18;13.25;;;8.10;;
29330;SDS011;16331;52.528;13.342;2023-06-22T04:10:45;14.77;;;8.77;;
29330;SDS011;16331;52.528;13.342;2023-06-22T04:13:11;13.60;;;8.55;;
29330;SDS011;16331;52.528;13.342;2023-06-22T04:15:38;13.23;;;7.65;;
29330;SDS011;16331;52.528;13.342;2023-06-22T04:18:04;13.80;;;7.53;;
29330;SDS011;16331;52.528;13.342;2023-06-22T04:20:31;12.07;;;7.07;;
29330;SDS011;16331;52.528;13.342;2023-06-22T04:22:57;12.65;;;7.55;;
29330;SDS011;16331;52.528;13.342;2023-06-22T04:25:24;10.90;;;7.60;;
29330;SDS011;16331;52.528;13.342;2023-06-22T04:27:50;11.48;;;7.25;;
29330;SDS011;16331;52.528;13.342;2023-06-22T04:30:16;14.15;;;7.93;;
29330;SDS011;16331;52.528;13.342;2023-06-22T04:32:43;12.27;;;6.40;;
29330;SDS011;16331;52.528;13.342;2023-06-22T04:35:10;14.60;;;6.47;;
29330;SDS011;16331;52.528;13.342;2023-06-22T04:37:37;8.82;;;5.93;;
29330;SDS011;16331;52.528;13.342;2023-06-22T04:40:04;8.43;;;5.43;;
29330;SDS011;16331;52.528;13.342;2023-06-22T04:42:33;9.20;;;6.35;;
29330;SDS011;16331;52.528;13.342;2023-06-22T04:45:03;11.93;;;5.32;;
29330;SDS011;16331;52.528;13.342;2023-06-22T05:01:20;9.13;;;4.43;;
29330;SDS011;16331;52.528;13.342;2023-06-22T05:03:47;7.57;;;4.47;;
29330;SDS011;16331;52.528;13.342;2023-06-22T05:12:47;11.57;;;4.03;;
29330;SDS011;16331;52.528;13.342;2023-06-22T05:15:13;23.55;;;4.18;;
29330;SDS011;16331;52.528;13.342;2023-06-22T05:17:40;24.23;;;4.50;;
29330;SDS011;16331;52.528;13.342;2023-06-22T05:20:08;13.68;;;3.67;;
29330;SDS011;16331;52.528;13.342;2023-06-22T05:22:35;7.47;;;3.15;;
29330;SDS011;16331;52.528;13.342;2023-06-22T05:25:01;5.80;;;2.88;;
29330;SDS011;16331;52.528;13.342;2023-06-22T05:27:28;7.90;;;3.30;;
29330;SDS011;16331;52.528;13.342;2023-06-22T05:29:58;4.30;;;3.03;;
29330;SDS011;16331;52.528;13.342;2023-06-22T05:32:26;8.23;;;3.28;;
29330;SDS011;16331;52.528;13.342;2023-06-22T05:34:52;6.28;;;2.60;;
29330;SDS011;16331;52.528;13.342;2023-06-22T05:37:18;6.47;;;3.13;;
29330;SDS011;16331;52.528;13.342;2023-06-22T05:39:45;6.75;;;3.33;;
29330;SDS011;16331;52.528;13.342;2023-06-22T05:42:11;8.75;;;3.03;;
29330;SDS011;16331;52.528;13.342;2023-06-22T05:44:39;6.90;;;3.10;;
29330;SDS011;16331;52.528;13.342;2023-06-22T05:47:07;5.95;;;2.60;;
29330;SDS011;16331;52.528;13.342;2023-06-22T05:49:45;5.18;;;3.22;;
29330;SDS011;16331;52.528;13.342;2023-06-22T05:52:13;7.95;;;3.60;;
29330;SDS011;16331;52.528;13.342;2023-06-22T05:54:39;5.72;;;3.45;;
29330;SDS011;16331;52.528;13.342;2023-06-22T05:57:07;9.10;;;3.50;;
29330;SDS011;16331;52.528;13.342;2023-06-22T05:59:33;4.70;;;3.05;;
29330;SDS011;16331;52.528;13.342;2023-06-22T06:02:00;8.05;;;3.28;;
29330;SDS011;16331;52.528;13.342;2023-06-22T06:04:26;12.90;;;3.75;;
29330;SDS011;16331;52.528;13.342;2023-06-22T06:06:52;20.73;;;3.72;;
29330;SDS011;16331;52.528;13.342;2023-06-22T06:09:19;5.95;;;3.10;;
29330;SDS011;16331;52.528;13.342;2023-06-22T06:11:45;8.30;;;3.45;;
29330;SDS011;16331;52.528;13.342;2023-06-22T06:14:11;10.50;;;3.72;;
29330;SDS011;16331;52.528;13.342;2023-06-22T06:16:37;11.73;;;3.80;;
29330;SDS011;16331;52.528;13.342;2023-06-22T06:19:04;10.40;;;4.43;;
29330;SDS011;16331;52.528;13.342;2023-06-22T06:21:30;5.57;;;3.47;;
29330;SDS011;16331;52.528;13.342;2023-06-22T06:23:56;10.10;;;3.83;;
29330;SDS011;16331;52.528;13.342;2023-06-22T06:26:22;17.15;;;3.92;;
29330;SDS011;16331;52.528;13.342;2023-06-22T06:28:53;8.07;;;3.75;;
29330;SDS011;16331;52.528;13.342;2023-06-22T06:31:20;10.07;;;3.75;;
29330;SDS011;16331;52.528;13.342;2023-06-22T06:33:46;7.38;;;3.65;;
29330;SDS011;16331;52.528;13.342;2023-06-22T06:36:12;7.18;;;3.97;;
29330;SDS011;16331;52.528;13.342;2023-06-22T06:38:39;4.47;;;2.95;;
29330;SDS011;16331;52.528;13.342;2023-06-22T06:41:05;9.40;;;3.65;;
29330;SDS011;16331;52.528;13.342;2023-06-22T06:43:31;6.18;;;3.88;;
29330;SDS011;16331;52.528;13.342;2023-06-22T06:45:57;10.93;;;4.25;;
29330;SDS011;16331;52.528;13.342;2023-06-22T06:48:23;6.63;;;3.92;;
29330;SDS011;16331;52.528;13.342;2023-06-22T06:50:49;8.68;;;3.20;;
29330;SDS011;16331;52.528;13.342;2023-06-22T06:53:15;15.43;;;4.10;;
29330;SDS011;16331;52.528;13.342;2023-06-22T06:55:43;5.47;;;2.88;;
29330;SDS011;16331;52.528;13.342;2023-06-22T06:58:10;5.60;;;3.05;;
29330;SDS011;16331;52.528;13.342;2023-06-22T07:00:38;6.43;;;3.03;;
29330;SDS011;16331;52.528;13.342;2023-06-22T07:03:05;9.48;;;3.03;;
29330;SDS011;16331;52.528;13.342;2023-06-22T07:05:32;5.22;;;2.65;;
29330;SDS011;16331;52.528;13.342;2023-06-22T07:07:58;3.65;;;2.78;;
29330;SDS011;16331;52.528;13.342;2023-06-22T07:10:24;4.40;;;3.03;;
29330;SDS011;16331;52.528;13.342;2023-06-22T07:12:50;8.68;;;2.75;;
29330;SDS011;16331;52.528;13.342;2023-06-22T07:15:17;7.05;;;2.20;;
29330;SDS011;16331;52.528;13.342;2023-06-22T07:17:49;6.63;;;2.33;;
29330;SDS011;16331;52.528;13.342;2023-06-22T07:20:15;3.60;;;2.95;;
29330;SDS011;16331;52.528;13.342;2023-06-22T07:22:44;5.78;;;2.90;;
29330;SDS011;16331;52.528;13.342;2023-06-22T07:25:19;6.88;;;2.60;;
29330;SDS011;16331;52.528;13.342;2023-06-22T07:27:46;3.47;;;2.38;;
29330;SDS011;16331;52.528;13.342;2023-06-22T07:30:22;7.82;;;2.85;;
29330;SDS011;16331;52.528;13.342;2023-06-22T07:32:53;5.53;;;2.28;;
29330;SDS011;16331;52.528;13.342;2023-06-22T07:35:27;5.18;;;2.03;;
29330;SDS011;16331;52.528;13.342;2023-06-22T07:37:55;6.70;;;1.88;;
29330;SDS011;16331;52.528;13.342;2023-06-22T07:40:23;6.50;;;2.25;;
29330;SDS011;16331;52.528;13.342;2023-06-22T07:42:50;3.78;;;2.20;;
29330;SDS011;16331;52.528;13.342;2023-06-22T07:45:29;5.72;;;1.98;;
29330;SDS011;16331;52.528;13.342;2023-06-22T07:47:59;3.85;;;2.03;;
29330;SDS011;16331;52.528;13.342;2023-06-22T07:50:26;3.05;;;2.00;;
29330;SDS011;16331;52.528;13.342;2023-06-22T07:52:55;5.88;;;1.92;;
29330;SDS011;16331;52.528;13.342;2023-06-22T07:55:30;5.10;;;2.10;;
29330;SDS011;16331;52.528;13.342;2023-06-22T07:58:16;8.48;;;2.15;;
29330;SDS011;16331;52.528;13.342;2023-06-22T08:00:44;4.22;;;2.10;;
29330;SDS011;16331;52.528;13.342;2023-06-22T08:03:14;4.05;;;2.08;;
29330;SDS011;16331;52.528;13.342;2023-06-22T08:05:40;3.45;;;2.03;;
29330;SDS011;16331;52.528;13.342;2023-06-22T08:08:06;6.18;;;2.40;;
29330;SDS011;16331;52.528;13.342;2023-06-22T08:10:33;3.60;;;1.90;;
29330;SDS011;16331;52.528;13.342;2023-06-22T08:12:59;3.22;;;1.65;;
29330;SDS011;16331;52.528;13.342;2023-06-22T08:15:26;2.95;;;1.88;;
29330;SDS011;16331;52.528;13.342;2023-06-22T08:17:52;12.98;;;2.50;;
29330;SDS011;16331;52.528;13.342;2023-06-22T08:20:18;2.92;;;1.73;;
29330;SDS011;16331;52.528;13.342;2023-06-22T08:22:44;6.38;;;3.85;;
29330;SDS011;16331;52.528;13.342;2023-06-22T08:25:11;4.82;;;2.72;;
29330;SDS011;16331;52.528;13.342;2023-06-22T08:27:38;4.03;;;2.17;;
29330;SDS011;16331;52.528;13.342;2023-06-22T08:30:04;5.18;;;2.95;;
29330;SDS011;16331;52.528;13.342;2023-06-22T08:32:32;3.92;;;1.85;;
29330;SDS011;16331;52.528;13.342;2023-06-22T08:34:59;3.25;;;1.90;;
29330;SDS011;16331;52.528;13.342;2023-06-22T08:37:26;10.57;;;2.42;;
29330;SDS011;16331;52.528;13.342;2023-06-22T08:39:59;2.90;;;1.77;;
29330;SDS011;16331;52.528;13.342;2023-06-22T08:42:26;8.45;;;2.33;;
29330;SDS011;16331;52.528;13.342;2023-06-22T08:44:52;5.28;;;2.22;;
29330;SDS011;16331;52.528;13.342;2023-06-22T08:47:19;3.90;;;2.10;;
29330;SDS011;16331;52.528;13.342;2023-06-22T08:49:46;8.45;;;2.50;;
29330;SDS011;16331;52.528;13.342;2023-06-22T08:52:13;5.05;;;2.78;;
29330;SDS011;16331;52.528;13.342;2023-06-22T08:54:40;6.57;;;2.72;;
29330;SDS011;16331;52.528;13.342;2023-06-22T08:57:06;13.98;;;2.80;;
29330;SDS011;16331;52.528;13.342;2023-06-22T08:59:33;5.20;;;3.10;;
29330;SDS011;16331;52.528;13.342;2023-06-22T09:01:59;4.90;;;2.13;;
29330;SDS011;16331;52.528;13.342;2023-06-22T09:04:26;5.53;;;2.47;;
29330;SDS011;16331;52.528;13.342;2023-06-22T09:07:01;5.18;;;3.08;;
29330;SDS011;16331;52.528;13.342;2023-06-22T09:09:27;4.80;;;2.47;;
29330;SDS011;16331;52.528;13.342;2023-06-22T09:11:54;4.22;;;2.10;;
29330;SDS011;16331;52.528;13.342;2023-06-22T09:14:22;32.03;;;6.75;;
29330;SDS011;16331;52.528;13.342;2023-06-22T09:16:49;8.45;;;3.72;;
29330;SDS011;16331;52.528;13.342;2023-06-22T09:19:16;14.65;;;3.80;;
29330;SDS011;16331;52.528;13.342;2023-06-22T09:21:43;5.07;;;3.03;;
29330;SDS011;16331;52.528;13.342;2023-06-22T09:24:09;6.88;;;2.85;;
29330;SDS011;16331;52.528;13.342;2023-06-22T09:26:35;19.55;;;4.25;;
29330;SDS011;16331;52.528;13.342;2023-06-22T09:29:01;14.07;;;3.92;;
29330;SDS011;16331;52.528;13.342;2023-06-22T09:31:30;4.15;;;2.50;;
29330;SDS011;16331;52.528;13.342;2023-06-22T09:33:59;3.40;;;2.20;;
29330;SDS011;16331;52.528;13.342;2023-06-22T09:36:28;5.32;;;2.75;;
29330;SDS011;16331;52.528;13.342;2023-06-22T09:39:00;8.30;;;3.70;;
29330;SDS011;16331;52.528;13.342;2023-06-22T09:41:30;6.63;;;2.60;;
29330;SDS011;16331;52.528;13.342;2023-06-22T09:43:58;5.80;;;3.10;;
29330;SDS011;16331;52.528;13.342;2023-06-22T09:46:24;4.63;;;2.00;;
29330;SDS011;16331;52.528;13.342;2023-06-22T09:48:59;3.17;;;2.00;;
29330;SDS011;16331;52.528;13.342;2023-06-22T09:51:31;4.00;;;2.65;;
29330;SDS011;16331;52.528;13.342;2023-06-22T09:53:57;4.65;;;2.67;;
29330;SDS011;16331;52.528;13.342;2023-06-22T09:56:25;5.43;;;2.15;;
29330;SDS011;16331;52.528;13.342;2023-06-22T09:58:55;5.60;;;2.95;;
29330;SDS011;16331;52.528;13.342;2023-06-22T10:01:21;4.13;;;2.40;;
29330;SDS011;16331;52.528;13.342;2023-06-22T10:03:48;6.45;;;3.03;;
29330;SDS011;16331;52.528;13.342;2023-06-22T10:06:14;4.05;;;2.38;;
29330;SDS011;16331;52.528;13.342;2023-06-22T10:08:40;6.93;;;2.75;;
29330;SDS011;16331;52.528;13.342;2023-06-22T10:11:13;5.97;;;3.33;;
29330;SDS011;16331;52.528;13.342;2023-06-22T10:13:43;5.32;;;3.08;;
29330;SDS011;16331;52.528;13.342;2023-06-22T10:16:12;3.25;;;2.35;;
29330;SDS011;16331;52.528;13.342;2023-06-22T10:18:41;3.33;;;2.33;;
29330;SDS011;16331;52.528;13.342;2023-06-22T10:21:08;4.80;;;2.78;;
29330;SDS011;16331;52.528;13.342;2023-06-22T10:23:35;23.40;;;12.55;;
29330;SDS011;16331;52.528;13.342;2023-06-22T10:26:01;4.40;;;3.00;;
29330;SDS011;16331;52.528;13.342;2023-06-22T10:28:27;7.05;;;3.28;;
29330;SDS011;16331;52.528;13.342;2023-06-22T10:30:55;5.45;;;2.80;;
29330;SDS011;16331;52.528;13.342;2023-06-22T10:33:22;4.75;;;2.70;;
29330;SDS011;16331;52.528;13.342;2023-06-22T10:36:18;3.33;;;2.63;;
29330;SDS011;16331;52.528;13.342;2023-06-22T10:38:49;4.85;;;2.58;;
29330;SDS011;16331;52.528;13.342;2023-06-22T10:41:20;4.90;;;2.92;;
29330;SDS011;16331;52.528;13.342;2023-06-22T10:43:50;3.17;;;2.60;;
29330;SDS011;16331;52.528;13.342;2023-06-22T10:46:18;9.68;;;3.03;;
29330;SDS011;16331;52.528;13.342;2023-06-22T10:48:46;6.10;;;2.80;;
29330;SDS011;16331;52.528;13.342;2023-06-22T10:51:17;8.43;;;3.42;;
29330;SDS011;16331;52.528;13.342;2023-06-22T10:53:53;3.95;;;2.42;;
29330;SDS011;16331;52.528;13.342;2023-06-22T10:56:19;11.02;;;3.45;;
29330;SDS011;16331;52.528;13.342;2023-06-22T10:58:48;4.45;;;2.88;;
29330;SDS011;16331;52.528;13.342;2023-06-22T11:01:22;7.30;;;2.78;;
29330;SDS011;16331;52.528;13.342;2023-06-22T11:03:52;5.97;;;2.88;;
29330;SDS011;16331;52.528;13.342;2023-06-22T11:06:22;6.38;;;2.95;;
29330;SDS011;16331;52.528;13.342;2023-06-22T11:08:49;3.90;;;2.58;;
29330;SDS011;16331;52.528;13.342;2023-06-22T11:11:16;4.68;;;2.72;;
29330;SDS011;16331;52.528;13.342;2023-06-22T11:13:43;5.32;;;2.53;;
29330;SDS011;16331;52.528;13.342;2023-06-22T11:16:12;4.82;;;2.70;;
29330;SDS011;16331;52.528;13.342;2023-06-22T11:18:38;6.85;;;3.28;;
29330;SDS011;16331;52.528;13.342;2023-06-22T11:21:06;3.55;;;2.50;;
29330;SDS011;16331;52.528;13.342;2023-06-22T11:23:32;4.35;;;2.45;;
29330;SDS011;16331;52.528;13.342;2023-06-22T11:26:06;6.28;;;2.78;;
29330;SDS011;16331;52.528;13.342;2023-06-22T11:28:34;4.40;;;2.70;;
29330;SDS011;16331;52.528;13.342;2023-06-22T11:31:03;9.05;;;3.78;;
29330;SDS011;16331;52.528;13.342;2023-06-22T11:33:33;4.75;;;3.20;;
29330;SDS011;16331;52.528;13.342;2023-06-22T11:36:04;6.00;;;3.03;;
29330;SDS011;16331;52.528;13.342;2023-06-22T11:38:33;6.22;;;2.83;;
29330;SDS011;16331;52.528;13.342;2023-06-22T11:41:03;6.68;;;2.95;;
29330;SDS011;16331;52.528;13.342;2023-06-22T11:43:35;8.35;;;3.00;;
29330;SDS011;16331;52.528;13.342;2023-06-22T11:46:28;7.78;;;2.85;;
29330;SDS011;16331;52.528;13.342;2023-06-22T11:49:14;7.25;;;3.05;;
29330;SDS011;16331;52.528;13.342;2023-06-22T11:51:48;4.70;;;2.90;;
29330;SDS011;16331;52.528;13.342;2023-06-22T11:54:21;7.15;;;2.78;;
29330;SDS011;16331;52.528;13.342;2023-06-22T11:56:48;8.43;;;3.80;;
29330;SDS011;16331;52.528;13.342;2023-06-22T11:59:15;8.68;;;2.80;;
29330;SDS011;16331;52.528;13.342;2023-06-22T12:01:47;7.53;;;3.17;;
29330;SDS011;16331;52.528;13.342;2023-06-22T12:04:15;5.30;;;3.10;;
29330;SDS011;16331;52.528;13.342;2023-06-22T12:06:53;6.93;;;2.83;;
29330;SDS011;16331;52.528;13.342;2023-06-22T12:10:05;3.15;;;2.40;;
29330;SDS011;16331;52.528;13.342;2023-06-22T12:12:33;3.65;;;2.58;;
29330;SDS011;16331;52.528;13.342;2023-06-22T12:15:00;16.90;;;3.35;;
29330;SDS011;16331;52.528;13.342;2023-06-22T12:17:41;9.48;;;3.10;;
29330;SDS011;16331;52.528;13.342;2023-06-22T12:20:57;6.32;;;3.17;;
29330;SDS011;16331;52.528;13.342;2023-06-22T12:23:28;2.78;;;2.20;;
29330;SDS011;16331;52.528;13.342;2023-06-22T12:25:58;4.28;;;2.70;;
29330;SDS011;16331;52.528;13.342;2023-06-22T12:28:30;3.92;;;2.58;;
29330;SDS011;16331;52.528;13.342;2023-06-22T12:30:59;3.92;;;3.28;;
29330;SDS011;16331;52.528;13.342;2023-06-22T12:33:25;3.65;;;2.53;;
29330;SDS011;16331;52.528;13.342;2023-06-22T12:35:52;5.00;;;2.58;;
29330;SDS011;16331;52.528;13.342;2023-06-22T12:38:18;4.90;;;3.00;;
29330;SDS011;16331;52.528;13.342;2023-06-22T12:40:44;3.08;;;2.03;;
29330;SDS011;16331;52.528;13.342;2023-06-22T12:43:12;3.30;;;2.47;;
29330;SDS011;16331;52.528;13.342;2023-06-22T12:45:38;3.63;;;2.40;;
29330;SDS011;16331;52.528;13.342;2023-06-22T12:48:05;3.88;;;2.40;;
29330;SDS011;16331;52.528;13.342;2023-06-22T12:50:31;4.15;;;3.00;;
29330;SDS011;16331;52.528;13.342;2023-06-22T12:52:58;3.05;;;2.55;;
29330;SDS011;16331;52.528;13.342;2023-06-22T12:55:27;5.03;;;2.78;;
29330;SDS011;16331;52.528;13.342;2023-06-22T12:57:53;6.50;;;3.15;;
29330;SDS011;16331;52.528;13.342;2023-06-22T13:00:19;5.50;;;2.90;;
29330;SDS011;16331;52.528;13.342;2023-06-22T13:02:45;3.90;;;2.92;;
29330;SDS011;16331;52.528;13.342;2023-06-22T13:05:12;5.70;;;3.63;;
29330;SDS011;16331;52.528;13.342;2023-06-22T13:07:38;6.13;;;2.75;;
29330;SDS011;16331;52.528;13.342;2023-06-22T13:10:04;4.18;;;2.70;;
29330;SDS011;16331;52.528;13.342;2023-06-22T13:12:32;4.60;;;2.45;;
29330;SDS011;16331;52.528;13.342;2023-06-22T13:15:00;7.03;;;2.75;;
29330;SDS011;16331;52.528;13.342;2023-06-22T13:17:29;3.05;;;2.30;;
29330;SDS011;16331;52.528;13.342;2023-06-22T13:19:56;4.30;;;2.50;;
29330;SDS011;16331;52.528;13.342;2023-06-22T13:22:35;6.00;;;4.53;;
29330;SDS011;16331;52.528;13.342;2023-06-22T13:25:08;4.45;;;2.83;;
29330;SDS011;16331;52.528;13.342;2023-06-22T13:27:37;4.05;;;2.70;;
29330;SDS011;16331;52.528;13.342;2023-06-22T13:30:07;3.33;;;2.70;;
29330;SDS011;16331;52.528;13.342;2023-06-22T13:32:34;5.30;;;3.22;;
29330;SDS011;16331;52.528;13.342;2023-06-22T13:35:00;6.78;;;3.55;;
29330;SDS011;16331;52.528;13.342;2023-06-22T13:37:26;4.70;;;3.20;;
29330;SDS011;16331;52.528;13.342;2023-06-22T13:39:53;4.43;;;2.88;;
29330;SDS011;16331;52.528;13.342;2023-06-22T13:42:21;4.30;;;2.75;;
29330;SDS011;16331;52.528;13.342;2023-06-22T13:44:47;5.78;;;3.42;;
29330;SDS011;16331;52.528;13.342;2023-06-22T13:47:13;8.45;;;3.40;;
29330;SDS011;16331;52.528;13.342;2023-06-22T13:49:39;3.63;;;2.70;;
29330;SDS011;16331;52.528;13.342;2023-06-22T13:52:05;3.53;;;2.53;;
29330;SDS011;16331;52.528;13.342;2023-06-22T13:54:35;3.28;;;2.35;;
29330;SDS011;16331;52.528;13.342;2023-06-22T13:57:02;3.90;;;2.17;;
29330;SDS011;16331;52.528;13.342;2023-06-22T13:59:29;4.30;;;3.00;;
29330;SDS011;16331;52.528;13.342;2023-06-22T14:01:57;3.63;;;2.75;;
29330;SDS011;16331;52.528;13.342;2023-06-22T14:04:23;3.90;;;2.72;;
29330;SDS011;16331;52.528;13.342;2023-06-22T14:06:51;5.13;;;2.60;;
29330;SDS011;16331;52.528;13.342;2023-06-22T14:09:18;3.28;;;2.55;;
29330;SDS011;16331;52.528;13.342;2023-06-22T14:11:45;3.75;;;2.63;;
29330;SDS011;16331;52.528;13.342;2023-06-22T14:14:13;3.35;;;2.60;;
29330;SDS011;16331;52.528;13.342;2023-06-22T14:16:40;5.15;;;3.50;;
29330;SDS011;16331;52.528;13.342;2023-06-22T14:19:12;3.10;;;2.70;;
29330;SDS011;16331;52.528;13.342;2023-06-22T14:21:39;15.13;;;4.28;;
29330;SDS011;16331;52.528;13.342;2023-06-22T14:24:05;3.17;;;2.50;;
29330;SDS011;16331;52.528;13.342;2023-06-22T14:26:31;3.30;;;2.53;;
29330;SDS011;16331;52.528;13.342;2023-06-22T14:28:57;3.45;;;2.60;;
29330;SDS011;16331;52.528;13.342;2023-06-22T14:31:24;6.65;;;4.03;;
29330;SDS011;16331;52.528;13.342;2023-06-22T14:33:50;5.47;;;3.83;;
29330;SDS011;16331;52.528;13.342;2023-06-22T14:36:18;5.45;;;2.60;;
29330;SDS011;16331;52.528;13.342;2023-06-22T14:38:44;3.47;;;2.90;;
29330;SDS011;16331;52.528;13.342;2023-06-22T14:41:13;4.68;;;2.88;;
29330;SDS011;16331;52.528;13.342;2023-06-22T14:43:46;7.80;;;3.22;;
29330;SDS011;16331;52.528;13.342;2023-06-22T14:46:14;4.28;;;3.08;;
29330;SDS011;16331;52.528;13.342;2023-06-22T14:48:41;3.80;;;2.55;;
29330;SDS011;16331;52.528;13.342;2023-06-22T14:51:08;4.53;;;3.47;;
29330;SDS011;16331;52.528;13.342;2023-06-22T14:53:34;5.03;;;2.85;;
29330;SDS011;16331;52.528;13.342;2023-06-22T14:56:02;3.58;;;2.75;;
29330;SDS011;16331;52.528;13.342;2023-06-22T14:58:32;5.07;;;3.35;;
29330;SDS011;16331;52.528;13.342;2023-06-22T15:01:02;9.30;;;4.30;;